Time;durP1;ratioP1;P1;durP2;ratioP2;P2;SDS_P1;SDS_P2;PMS_P1;PMS_P2;Temp;Humidity;BMP_temperature;BMP_pressure;BME280_temperature;BME280_humidity;BME280_pressure;Samples;Min_cycle;Max_cycle;Signal;HPM_P1;HPM_P2
2023/08/04 00:00:00;;;;;;;5.63;2.73;;;;;22.90;99854.00;;;;2061808;28;20305;-56
2023/08/04 00:01:01;;;;;;;3.80;2.80;;;;;22.90;99858.00;;;;2061859;28;20211;-57
2023/08/04 00:02:01;;;;;;;4.00;2.70;;;;;22.90;99851.00;;;;2058578;28;20215;-55
2023/08/04 00:03:01;;;;;;;3.17;2.40;;;;;22.80;99854.00;;;;2051682;28;20314;-56
2023/08/04 00:04:02;;;;;;;4.17;2.73;;;;;22.90;99855.00;;;;2061088;28;20243;-55
2023/08/04 00:05:03;;;;;;;4.37;2.30;;;;;22.90;99848.00;;;;2061920;28;20207;-55
2023/08/04 00:06:08;;;;;;;5.63;2.50;;;;;22.90;99854.00;;;;2051173;28;20223;-55
2023/08/04 00:07:09;;;;;;;4.40;2.70;;;;;22.80;99860.00;;;;2053351;28;20259;-56
2023/08/04 00:08:09;;;;;;;3.03;2.50;;;;;22.90;99856.00;;;;2042239;28;20679;-57
2023/08/04 00:09:09;;;;;;;2.77;2.00;;;;;22.90;99853.00;;;;2060563;28;20628;-56
2023/08/04 00:10:10;;;;;;;3.37;2.43;;;;;22.80;99862.00;;;;2061310;28;20692;-55
2023/08/04 00:11:10;;;;;;;4.57;2.70;;;;;22.90;99862.00;;;;2060808;28;20486;-55
2023/08/04 00:12:10;;;;;;;5.77;2.57;;;;;22.90;99858.00;;;;2061484;28;20325;-57
2023/08/04 00:13:11;;;;;;;3.33;2.60;;;;;22.90;99855.00;;;;2049092;28;20211;-57
2023/08/04 00:14:13;;;;;;;4.13;2.70;;;;;22.80;99869.00;;;;2061595;28;20280;-56
2023/08/04 00:15:14;;;;;;;6.10;2.40;;;;;22.90;99853.00;;;;2058895;28;20465;-55
2023/08/04 00:16:14;;;;;;;2.57;2.17;;;;;22.90;99855.00;;;;2058871;28;20679;-56
2023/08/04 00:17:14;;;;;;;3.53;2.47;;;;;22.90;99858.00;;;;2061073;28;20250;-56
2023/08/04 00:18:15;;;;;;;6.03;2.60;;;;;22.90;99857.00;;;;2051310;28;20222;-54
2023/08/04 00:19:15;;;;;;;3.30;2.20;;;;;22.80;99858.00;;;;2061755;28;20219;-56
2023/08/04 00:20:15;;;;;;;3.37;2.40;;;;;22.80;99859.00;;;;2059788;28;20857;-59
2023/08/04 00:21:16;;;;;;;3.10;2.33;;;;;22.80;99861.00;;;;2061735;28;20222;-55
2023/08/04 00:22:16;;;;;;;3.13;2.10;;;;;22.90;99857.00;;;;2061890;28;20215;-56
2023/08/04 00:23:16;;;;;;;3.50;2.50;;;;;22.80;99862.00;;;;2051235;28;20694;-55
2023/08/04 00:24:17;;;;;;;3.70;2.47;;;;;22.80;99854.00;;;;2061640;28;20625;-55
2023/08/04 00:25:17;;;;;;;3.90;2.50;;;;;22.80;99858.00;;;;2061124;28;20638;-56
2023/08/04 00:26:17;;;;;;;3.90;2.50;;;;;22.90;99857.00;;;;2061172;28;20581;-55
2023/08/04 00:27:18;;;;;;;7.17;2.53;;;;;22.80;99862.00;;;;2059757;28;20219;-56
2023/08/04 00:28:19;;;;;;;3.00;2.20;;;;;22.80;99863.00;;;;2051644;28;20234;-56
2023/08/04 00:29:19;;;;;;;3.67;2.27;;;;;22.80;99866.00;;;;2061425;28;20207;-56
2023/08/04 00:30:19;;;;;;;2.63;2.13;;;;;22.80;99863.00;;;;2060750;28;20454;-56
2023/08/04 00:31:20;;;;;;;6.20;2.40;;;;;22.40;99868.00;;;;2061194;28;20273;-56
2023/08/04 00:32:21;;;;;;;4.57;2.20;;;;;22.80;99864.00;;;;2060791;28;20222;-56
2023/08/04 00:33:22;;;;;;;2.60;2.30;;;;;22.90;99862.00;;;;2051449;28;20242;-56
2023/08/04 00:34:22;;;;;;;3.03;2.10;;;;;22.80;99863.00;;;;2060602;28;20295;-55
2023/08/04 00:35:23;;;;;;;2.90;2.37;;;;;22.80;99872.00;;;;2061675;28;20218;-56
2023/08/04 00:36:23;;;;;;;3.10;2.10;;;;;22.80;99872.00;;;;2061269;28;20269;-56
2023/08/04 00:37:24;;;;;;;3.13;2.00;;;;;22.80;99870.00;;;;2060023;28;20711;-56
2023/08/04 00:38:24;;;;;;;3.33;2.20;;;;;22.90;99862.00;;;;2051988;28;20629;-56
2023/08/04 00:39:24;;;;;;;3.20;2.03;;;;;22.80;99875.00;;;;2060790;28;20222;-56
2023/08/04 00:40:25;;;;;;;3.93;2.07;;;;;22.90;99870.00;;;;2061385;28;20226;-56
2023/08/04 00:41:25;;;;;;;3.37;1.97;;;;;22.80;99872.00;;;;2060636;28;20234;-56
2023/08/04 00:42:25;;;;;;;4.20;2.30;;;;;22.90;99873.00;;;;2061498;28;20210;-56
2023/08/04 00:43:26;;;;;;;4.27;2.20;;;;;22.80;99875.00;;;;2050277;28;20377;-56
2023/08/04 00:44:26;;;;;;;4.57;2.40;;;;;22.80;99874.00;;;;2060722;28;20218;-56
2023/08/04 00:45:27;;;;;;;3.87;2.03;;;;;22.80;99889.00;;;;2061510;28;20217;-56
2023/08/04 00:46:29;;;;;;;3.22;2.17;;;;;22.80;99930.00;;;;2060356;28;20215;-56
2023/08/04 00:47:35;;;;;;;3.60;2.13;;;;;22.80;99879.00;;;;2045246;28;20227;-56
2023/08/04 00:48:37;;;;;;;3.90;2.28;;;;;22.80;99881.00;;;;2043523;28;20253;-56
2023/08/04 00:49:38;;;;;;;5.35;2.10;;;;;22.80;99874.00;;;;2060560;28;20683;-56
2023/08/04 00:50:39;;;;;;;3.73;1.93;;;;;22.80;99879.00;;;;2060768;28;20215;-56
2023/08/04 00:51:39;;;;;;;4.03;2.17;;;;;22.80;99882.00;;;;2052360;28;20482;-55
2023/08/04 00:52:40;;;;;;;3.23;2.10;;;;;22.80;99879.00;;;;2060572;28;21261;-56
2023/08/04 00:53:40;;;;;;;3.33;1.70;;;;;22.80;99888.00;;;;2046356;28;20358;-56
2023/08/04 00:54:40;;;;;;;3.60;2.40;;;;;22.80;99880.00;;;;2055766;28;20706;-56
2023/08/04 00:55:42;;;;;;;5.87;2.17;;;;;22.80;99884.00;;;;2061246;28;21006;-55
2023/08/04 00:56:42;;;;;;;3.63;1.90;;;;;22.80;99882.00;;;;2061024;28;20249;-56
2023/08/04 00:57:43;;;;;;;4.07;2.10;;;;;22.80;99887.00;;;;2051805;28;20684;-56
2023/08/04 00:58:43;;;;;;;3.67;2.17;;;;;22.80;99879.00;;;;2042683;28;20263;-56
2023/08/04 00:59:43;;;;;;;3.67;2.07;;;;;22.80;99880.00;;;;2068691;28;20229;-56
2023/08/04 01:00:44;;;;;;;2.43;1.80;;;;;22.80;99888.00;;;;2060426;28;20305;-56
2023/08/04 01:01:44;;;;;;;4.77;2.10;;;;;22.80;99892.00;;;;2058680;28;20222;-56
2023/08/04 01:02:44;;;;;;;3.67;1.80;;;;;22.80;99890.00;;;;2054867;28;20242;-56
2023/08/04 01:03:45;;;;;;;2.57;2.00;;;;;22.80;99888.00;;;;2058339;28;20215;-56
2023/08/04 01:04:45;;;;;;;3.07;1.90;;;;;22.80;99885.00;;;;2060587;28;20281;-56
2023/08/04 01:06:08;;;;;;;3.93;2.10;;;;;22.80;99891.00;;;;2052038;28;20292;-56
2023/08/04 01:07:17;;;;;;;3.42;2.22;;;;;22.80;99894.00;;;;2053658;28;20302;-56
2023/08/04 01:08:19;;;;;;;4.30;1.90;;;;;22.80;99871.00;;;;2049747;28;20215;-57
2023/08/04 01:09:27;;;;;;;2.85;2.22;;;;;22.80;99894.00;;;;2052299;28;20544;-56
2023/08/04 01:10:35;;;;;;;3.13;2.15;;;;;22.80;99895.00;;;;2058203;28;20310;-56
2023/08/04 01:11:42;;;;;;;3.22;2.03;;;;;22.80;99899.00;;;;2052927;28;20211;-56
2023/08/04 01:13:00;;;;;;;4.32;2.28;;;;;22.80;99896.00;;;;2051869;28;20220;-56
2023/08/04 01:14:02;;;;;;;3.80;2.40;;;;;22.80;99902.00;;;;2057283;28;20230;-56
2023/08/04 01:15:04;;;;;;;5.18;2.78;;;;;22.80;99907.00;;;;2060332;28;20286;-56
2023/08/04 01:16:04;;;;;;;4.15;2.28;;;;;22.80;99942.00;;;;2064309;28;20199;-56
2023/08/04 01:17:29;;;;;;;2.83;2.03;;;;;22.80;99908.00;;;;2053939;28;20703;-56
2023/08/04 01:18:30;;;;;;;2.95;1.80;;;;;22.80;99903.00;;;;2050387;28;20207;-56
2023/08/04 01:19:31;;;;;;;6.13;2.30;;;;;22.80;99899.00;;;;2060376;28;20223;-56
2023/08/04 01:20:31;;;;;;;3.30;1.83;;;;;22.10;99901.00;;;;2061214;28;20218;-56
2023/08/04 01:21:43;;;;;;;2.63;1.80;;;;;22.80;99935.00;;;;2056948;28;20223;-56
2023/08/04 01:22:43;;;;;;;4.57;2.20;;;;;22.80;99911.00;;;;2067230;28;20226;-56
2023/08/04 01:23:43;;;;;;;3.53;2.33;;;;;22.80;99897.00;;;;2050255;28;20687;-55
2023/08/04 01:24:44;;;;;;;2.40;1.90;;;;;22.80;99885.00;;;;2060484;28;20215;-56
2023/08/04 01:25:44;;;;;;;3.27;1.90;;;;;22.80;99900.00;;;;2052473;28;20222;-56
2023/08/04 01:26:45;;;;;;;3.53;2.10;;;;;22.80;99898.00;;;;2059207;28;20215;-56
2023/08/04 01:27:50;;;;;;;2.70;2.10;;;;;22.80;99897.00;;;;2052328;28;20249;-56
2023/08/04 01:28:51;;;;;;;4.88;2.22;;;;;22.80;99902.00;;;;2034114;28;20987;-55
2023/08/04 01:29:51;;;;;;;3.50;1.60;;;;;22.80;99900.00;;;;2040260;28;20224;-56
2023/08/04 01:30:53;;;;;;;2.73;1.90;;;;;22.40;99906.00;;;;2061792;28;20219;-56
2023/08/04 01:31:53;;;;;;;2.60;2.10;;;;;22.80;99902.00;;;;2060071;28;20741;-55
2023/08/04 01:32:54;;;;;;;3.37;1.97;;;;;22.80;99903.00;;;;2049254;28;20297;-55
2023/08/04 01:33:54;;;;;;;4.60;1.90;;;;;22.80;99900.00;;;;2060045;28;20207;-56
2023/08/04 01:34:54;;;;;;;3.90;2.17;;;;;22.80;99904.00;;;;2050917;28;20227;-56
2023/08/04 01:35:55;;;;;;;4.00;2.40;;;;;22.80;99902.00;;;;2051808;28;20242;-56
2023/08/04 01:36:55;;;;;;;3.17;1.80;;;;;22.80;99906.00;;;;2059880;28;20211;-56
2023/08/04 01:37:55;;;;;;;2.67;1.93;;;;;22.80;99898.00;;;;2030957;28;20776;-54
2023/08/04 01:38:56;;;;;;;3.50;2.00;;;;;22.80;99907.00;;;;2044298;28;20748;-56
2023/08/04 01:39:56;;;;;;;2.67;1.73;;;;;22.80;99905.00;;;;2059601;28;20203;-56
2023/08/04 01:40:56;;;;;;;4.70;2.07;;;;;22.80;99906.00;;;;2060195;28;20214;-56
2023/08/04 01:41:57;;;;;;;3.10;2.00;;;;;22.80;99909.00;;;;2060741;28;20338;-56
2023/08/04 01:42:57;;;;;;;4.30;2.07;;;;;22.80;99908.00;;;;2050503;28;20241;-55
2023/08/04 01:43:57;;;;;;;2.50;1.83;;;;;22.80;99913.00;;;;2061014;28;20994;-55
2023/08/04 01:44:58;;;;;;;3.17;2.23;;;;;22.80;99910.00;;;;2060261;28;20319;-57
2023/08/04 01:45:58;;;;;;;4.97;2.00;;;;;22.80;99917.00;;;;2061009;28;20253;-57
2023/08/04 01:46:58;;;;;;;3.17;1.80;;;;;22.80;99915.00;;;;2060503;28;20227;-55
2023/08/04 01:47:59;;;;;;;2.40;1.50;;;;;22.80;99920.00;;;;2048767;28;21144;-55
2023/08/04 01:48:59;;;;;;;3.00;2.00;;;;;22.80;99914.00;;;;2060325;28;20211;-56
2023/08/04 01:49:59;;;;;;;3.37;2.03;;;;;22.80;99925.00;;;;2058687;28;20602;-55
2023/08/04 01:51:00;;;;;;;3.40;1.90;;;;;22.80;99920.00;;;;2061217;28;20475;-55
2023/08/04 01:52:01;;;;;;;2.80;1.57;;;;;22.80;99910.00;;;;2059016;28;20211;-55
2023/08/04 01:53:02;;;;;;;3.38;1.70;;;;;22.80;99922.00;;;;2054730;28;20222;-56
2023/08/04 01:54:02;;;;;;;3.03;1.80;;;;;22.80;99917.00;;;;2072382;28;20297;-55
2023/08/04 01:55:03;;;;;;;4.57;2.13;;;;;22.80;99919.00;;;;2054391;28;20780;-57
2023/08/04 01:56:03;;;;;;;2.63;2.10;;;;;22.80;99917.00;;;;2059625;28;20218;-56
2023/08/04 01:57:04;;;;;;;4.00;2.07;;;;;22.80;99919.00;;;;2059701;28;20345;-56
2023/08/04 01:58:04;;;;;;;3.97;2.20;;;;;22.80;99921.00;;;;2055170;28;20226;-56
2023/08/04 01:59:04;;;;;;;3.40;1.90;;;;;22.40;99920.00;;;;2069320;28;20294;-56
2023/08/04 02:00:08;;;;;;;4.00;1.90;;;;;22.80;99922.00;;;;2065627;28;20222;-58
2023/08/04 02:01:08;;;;;;;3.97;1.70;;;;;22.80;99921.00;;;;2060143;28;20682;-56
2023/08/04 02:02:08;;;;;;;3.40;1.73;;;;;22.80;99920.00;;;;2059671;28;20210;-56
2023/08/04 02:03:09;;;;;;;3.20;2.17;;;;;22.80;99923.00;;;;2050528;28;20226;-57
2023/08/04 02:04:09;;;;;;;2.53;1.90;;;;;22.80;99924.00;;;;2061560;28;20230;-56
2023/08/04 02:05:10;;;;;;;2.70;1.70;;;;;22.80;99920.00;;;;2068851;28;20222;-57
2023/08/04 02:06:11;;;;;;;3.78;2.00;;;;;22.80;99922.00;;;;2060709;28;20214;-57
2023/08/04 02:07:11;;;;;;;2.00;1.80;;;;;22.80;99927.00;;;;2059086;28;20234;-55
2023/08/04 02:08:12;;;;;;;6.00;2.00;;;;;22.80;99926.00;;;;2049399;28;20215;-55
2023/08/04 02:09:13;;;;;;;2.17;1.97;;;;;22.80;99925.00;;;;2059061;28;20277;-56
2023/08/04 02:10:13;;;;;;;4.38;2.15;;;;;22.80;99923.00;;;;2059734;28;20603;-57
2023/08/04 02:11:14;;;;;;;2.43;1.77;;;;;22.80;99921.00;;;;2059559;28;20222;-56
2023/08/04 02:12:14;;;;;;;2.40;1.83;;;;;22.80;99922.00;;;;2060465;28;20265;-55
2023/08/04 02:13:15;;;;;;;3.77;2.03;;;;;22.80;99933.00;;;;2050455;28;20287;-56
2023/08/04 02:14:15;;;;;;;1.70;1.40;;;;;22.80;99930.00;;;;2059042;28;20231;-56
2023/08/04 02:15:16;;;;;;;3.07;1.63;;;;;22.80;99931.00;;;;2049749;28;20215;-56
2023/08/04 02:16:16;;;;;;;4.93;1.60;;;;;22.80;99927.00;;;;2059010;28;20521;-56
2023/08/04 02:17:17;;;;;;;2.80;2.00;;;;;22.80;99927.00;;;;2059782;28;20297;-56
2023/08/04 02:18:18;;;;;;;2.58;1.67;;;;;22.80;99924.00;;;;2049664;28;20300;-56
2023/08/04 02:19:20;;;;;;;4.03;1.93;;;;;22.80;99925.00;;;;2060763;28;20222;-55
2023/08/04 02:20:21;;;;;;;2.88;1.83;;;;;22.80;99935.00;;;;2059003;28;20223;-56
2023/08/04 02:21:21;;;;;;;3.20;1.73;;;;;22.80;99928.00;;;;2060446;28;20299;-56
2023/08/04 02:22:21;;;;;;;2.07;1.70;;;;;22.80;99928.00;;;;2060554;28;20226;-56
2023/08/04 02:23:22;;;;;;;4.60;1.80;;;;;22.80;99932.00;;;;2048060;28;20211;-56
2023/08/04 02:24:22;;;;;;;3.67;2.00;;;;;22.80;99936.00;;;;2060198;28;20218;-56
2023/08/04 02:25:22;;;;;;;3.50;2.37;;;;;22.80;99935.00;;;;2059544;28;20226;-56
2023/08/04 02:26:23;;;;;;;3.40;2.10;;;;;22.80;99937.00;;;;2060221;28;20226;-55
2023/08/04 02:27:23;;;;;;;4.40;1.67;;;;;22.80;99932.00;;;;2058765;28;20310;-57
2023/08/04 02:28:24;;;;;;;2.60;2.00;;;;;22.80;99933.00;;;;2054748;28;20210;-56
2023/08/04 02:29:24;;;;;;;6.50;1.70;;;;;22.80;99925.00;;;;2059718;28;20286;-56
2023/08/04 02:30:25;;;;;;;4.10;1.90;;;;;22.80;99932.00;;;;2055385;28;20215;-56
2023/08/04 02:31:26;;;;;;;4.77;1.87;;;;;22.70;99928.00;;;;2059812;28;20588;-56
2023/08/04 02:32:26;;;;;;;3.67;2.42;;;;;22.80;99916.00;;;;2052024;28;20274;-57
2023/08/04 02:33:27;;;;;;;4.43;2.20;;;;;22.80;99931.00;;;;2050529;28;20867;-55
2023/08/04 02:34:27;;;;;;;2.30;1.87;;;;;22.80;99920.00;;;;2059728;28;20222;-56
2023/08/04 02:35:27;;;;;;;2.40;1.57;;;;;22.80;99922.00;;;;2061993;28;20301;-57
2023/08/04 02:36:28;;;;;;;3.73;1.87;;;;;22.80;99928.00;;;;2061984;28;20206;-55
2023/08/04 02:37:28;;;;;;;3.67;1.77;;;;;22.80;99931.00;;;;2060563;28;20214;-55
2023/08/04 02:38:28;;;;;;;2.00;1.73;;;;;22.80;99931.00;;;;2048604;28;20284;-55
2023/08/04 02:39:29;;;;;;;2.40;1.90;;;;;22.80;99941.00;;;;2060773;28;20211;-57
2023/08/04 02:40:29;;;;;;;2.53;1.90;;;;;22.80;99927.00;;;;2042430;28;20759;-57
2023/08/04 02:41:29;;;;;;;3.00;2.13;;;;;22.80;99928.00;;;;2052624;28;20867;-55
2023/08/04 02:42:30;;;;;;;2.63;1.50;;;;;22.80;99924.00;;;;2060804;28;20575;-55
2023/08/04 02:43:30;;;;;;;3.17;2.00;;;;;22.70;99930.00;;;;2051673;28;20226;-55
2023/08/04 02:44:31;;;;;;;3.87;1.83;;;;;22.70;99931.00;;;;2052423;28;20222;-55
2023/08/04 02:45:31;;;;;;;3.73;1.67;;;;;22.70;99924.00;;;;2061016;28;20214;-55
2023/08/04 02:46:32;;;;;;;3.53;2.00;;;;;22.80;99929.00;;;;2060045;28;20215;-54
2023/08/04 02:47:32;;;;;;;3.23;1.93;;;;;22.70;99935.00;;;;2060278;28;20498;-55
2023/08/04 02:48:33;;;;;;;2.73;1.53;;;;;22.80;99926.00;;;;2051540;28;20211;-55
2023/08/04 02:49:33;;;;;;;5.83;2.00;;;;;22.80;99943.00;;;;2061400;28;20210;-56
2023/08/04 02:50:34;;;;;;;2.80;1.83;;;;;22.80;99934.00;;;;2061252;28;20693;-57
2023/08/04 02:51:34;;;;;;;3.73;1.90;;;;;22.70;99944.00;;;;2057581;28;20214;-55
2023/08/04 02:52:34;;;;;;;2.87;2.10;;;;;22.80;99938.00;;;;2062065;28;20218;-55
2023/08/04 02:53:42;;;;;;;3.17;1.70;;;;;22.70;99940.00;;;;2051571;28;20207;-55
2023/08/04 02:54:42;;;;;;;2.53;1.70;;;;;22.70;99942.00;;;;2053828;28;20227;-56
2023/08/04 02:55:43;;;;;;;2.70;2.07;;;;;22.70;99942.00;;;;2059978;28;20352;-54
2023/08/04 02:56:43;;;;;;;4.40;2.07;;;;;22.70;99958.00;;;;2061305;28;20242;-54
2023/08/04 02:57:43;;;;;;;5.40;2.00;;;;;22.70;99946.00;;;;2058908;28;20234;-54
2023/08/04 02:58:45;;;;;;;5.27;2.00;;;;;22.70;99936.00;;;;2050847;28;20289;-56
2023/08/04 02:59:45;;;;;;;3.10;1.92;;;;;22.70;99946.00;;;;2061138;28;20284;-55
2023/08/04 03:00:45;;;;;;;3.83;2.20;;;;;22.70;99957.00;;;;2058508;28;21631;-55
2023/08/04 03:01:46;;;;;;;2.50;1.77;;;;;22.70;99939.00;;;;2059927;28;20243;-55
2023/08/04 03:02:46;;;;;;;3.10;1.97;;;;;22.70;99934.00;;;;2051210;28;20691;-57
2023/08/04 03:03:46;;;;;;;2.23;1.73;;;;;22.70;99939.00;;;;2060349;28;20761;-56
2023/08/04 03:04:47;;;;;;;3.30;1.93;;;;;22.70;99941.00;;;;2060457;28;20226;-55
2023/08/04 03:05:47;;;;;;;3.27;2.40;;;;;22.70;99937.00;;;;2061645;28;20225;-56
2023/08/04 03:06:47;;;;;;;2.23;1.83;;;;;22.70;99941.00;;;;2060179;28;20317;-54
2023/08/04 03:07:48;;;;;;;3.07;1.80;;;;;22.70;99944.00;;;;2049024;28;20234;-56
2023/08/04 03:08:48;;;;;;;2.23;1.60;;;;;22.70;99938.00;;;;2060959;28;20221;-55
2023/08/04 03:09:48;;;;;;;2.33;1.87;;;;;22.70;99949.00;;;;2061671;28;20215;-57
2023/08/04 03:10:49;;;;;;;3.10;1.80;;;;;22.70;99942.00;;;;2061767;28;20302;-56
2023/08/04 03:11:49;;;;;;;2.77;1.80;;;;;22.70;99950.00;;;;2058341;28;20226;-54
2023/08/04 03:12:49;;;;;;;2.23;1.50;;;;;22.70;99951.00;;;;2051894;28;20273;-55
2023/08/04 03:13:50;;;;;;;2.53;1.90;;;;;22.70;99944.00;;;;2060860;28;20255;-55
2023/08/04 03:14:50;;;;;;;4.90;1.80;;;;;22.70;99952.00;;;;2060169;28;20293;-55
2023/08/04 03:15:55;;;;;;;4.27;2.03;;;;;22.70;99950.00;;;;2060898;28;20229;-55
2023/08/04 03:16:56;;;;;;;3.35;1.98;;;;;22.70;99951.00;;;;2051180;28;20873;-56
2023/08/04 03:17:56;;;;;;;4.13;2.37;;;;;22.70;99948.00;;;;2040732;28;20219;-55
2023/08/04 03:18:56;;;;;;;2.43;1.90;;;;;22.70;99947.00;;;;2060740;28;20238;-54
2023/08/04 03:19:57;;;;;;;4.33;2.00;;;;;22.70;99953.00;;;;2061992;28;20570;-57
2023/08/04 03:20:59;;;;;;;2.43;1.50;;;;;22.70;99952.00;;;;2060798;28;20616;-53
2023/08/04 03:21:59;;;;;;;4.07;2.15;;;;;22.70;99949.00;;;;2060840;28;20257;-55
2023/08/04 03:23:00;;;;;;;4.37;2.00;;;;;22.70;99954.00;;;;2053350;28;20373;-56
2023/08/04 03:24:00;;;;;;;2.40;1.77;;;;;22.70;99955.00;;;;2061802;28;20221;-56
2023/08/04 03:25:01;;;;;;;2.87;1.73;;;;;22.70;99957.00;;;;2061127;28;20215;-56
2023/08/04 03:26:01;;;;;;;4.00;2.13;;;;;22.70;99961.00;;;;2059878;28;20326;-55
2023/08/04 03:27:01;;;;;;;3.43;2.20;;;;;22.80;99956.00;;;;2061536;28;20223;-55
2023/08/04 03:28:02;;;;;;;3.50;2.10;;;;;22.70;99956.00;;;;2049861;28;20605;-55
2023/08/04 03:29:02;;;;;;;3.60;2.00;;;;;22.70;99963.00;;;;2061782;28;20211;-56
2023/08/04 03:30:03;;;;;;;3.50;2.00;;;;;22.70;99968.00;;;;2060970;28;20207;-56
2023/08/04 03:31:03;;;;;;;3.33;1.83;;;;;22.70;99944.00;;;;2061973;28;20226;-56
2023/08/04 03:32:04;;;;;;;2.40;2.00;;;;;22.70;99964.00;;;;2060438;28;24151;-53
2023/08/04 03:33:04;;;;;;;4.33;2.20;;;;;22.70;99965.00;;;;2050026;28;20224;-53
2023/08/04 03:34:05;;;;;;;4.50;2.27;;;;;22.70;99971.00;;;;2056080;28;20277;-56
2023/08/04 03:35:05;;;;;;;2.83;1.93;;;;;22.70;99968.00;;;;2060262;28;20304;-55
2023/08/04 03:36:06;;;;;;;2.40;1.83;;;;;22.70;99968.00;;;;2060916;28;20199;-54
2023/08/04 03:37:06;;;;;;;3.37;2.10;;;;;22.70;99970.00;;;;2060515;28;20293;-56
2023/08/04 03:38:06;;;;;;;4.47;2.30;;;;;22.70;99969.00;;;;2050951;28;20218;-56
2023/08/04 03:39:07;;;;;;;4.57;2.20;;;;;22.70;99968.00;;;;2061192;28;20325;-56
2023/08/04 03:40:07;;;;;;;3.43;2.10;;;;;22.70;99977.00;;;;2060319;28;20203;-56
2023/08/04 03:41:08;;;;;;;2.63;2.30;;;;;22.70;99972.00;;;;2059531;28;20246;-55
2023/08/04 03:42:08;;;;;;;3.07;2.10;;;;;22.70;99973.00;;;;2060697;28;20473;-56
2023/08/04 03:43:09;;;;;;;2.37;1.90;;;;;22.70;99970.00;;;;2051757;28;20250;-56
2023/08/04 03:44:09;;;;;;;4.47;2.13;;;;;22.70;99977.00;;;;2060067;28;20679;-56
2023/08/04 03:45:09;;;;;;;2.60;2.00;;;;;22.70;99975.00;;;;2060438;28;20347;-56
2023/08/04 03:46:10;;;;;;;2.17;1.70;;;;;22.70;99978.00;;;;2058143;28;20284;-56
2023/08/04 03:47:10;;;;;;;5.03;2.23;;;;;22.70;99981.00;;;;2060475;28;20219;-56
2023/08/04 03:48:10;;;;;;;2.73;2.23;;;;;22.70;99987.00;;;;2051006;28;20242;-56
2023/08/04 03:49:11;;;;;;;3.70;2.20;;;;;22.70;99980.00;;;;2060502;28;20234;-56
2023/08/04 03:50:11;;;;;;;4.33;2.43;;;;;22.70;99982.00;;;;2061309;28;20218;-55
2023/08/04 03:51:11;;;;;;;6.97;2.23;;;;;22.70;99980.00;;;;2060466;28;20215;-56
2023/08/04 03:52:12;;;;;;;4.83;2.13;;;;;22.70;99983.00;;;;2061009;28;20225;-56
2023/08/04 03:53:12;;;;;;;3.53;1.73;;;;;22.70;99988.00;;;;2054947;28;20740;-56
2023/08/04 03:54:13;;;;;;;4.87;2.23;;;;;22.70;99985.00;;;;2067880;28;20241;-56
2023/08/04 03:55:13;;;;;;;3.20;1.90;;;;;22.70;99985.00;;;;2065134;28;20218;-55
2023/08/04 03:56:13;;;;;;;2.20;2.00;;;;;22.70;99982.00;;;;2060810;28;20309;-56
2023/08/04 03:57:14;;;;;;;3.83;2.40;;;;;22.70;99984.00;;;;2061176;28;20237;-56
2023/08/04 03:58:14;;;;;;;3.70;2.10;;;;;22.70;99992.00;;;;2049871;28;20249;-56
2023/08/04 03:59:14;;;;;;;3.13;2.40;;;;;22.70;99988.00;;;;2060164;28;20207;-55
2023/08/04 04:00:15;;;;;;;3.03;1.70;;;;;22.70;99990.00;;;;2060926;28;20667;-55
2023/08/04 04:01:15;;;;;;;3.57;2.20;;;;;22.70;99984.00;;;;2060443;28;20226;-56
2023/08/04 04:02:15;;;;;;;2.83;2.20;;;;;22.70;99988.00;;;;2061316;28;20215;-55
2023/08/04 04:03:16;;;;;;;4.00;2.40;;;;;22.70;99993.00;;;;2050458;28;20317;-56
2023/08/04 04:04:16;;;;;;;4.23;2.23;;;;;22.70;99988.00;;;;2056103;28;20237;-56
2023/08/04 04:05:17;;;;;;;2.20;1.90;;;;;22.70;99994.00;;;;2058818;28;20358;-56
2023/08/04 04:06:18;;;;;;;2.83;2.08;;;;;22.70;99992.00;;;;2059632;28;20277;-56
2023/08/04 04:07:18;;;;;;;7.03;2.50;;;;;22.70;99991.00;;;;2059403;28;20300;-56
2023/08/04 04:08:19;;;;;;;3.47;2.47;;;;;22.70;99992.00;;;;2049884;28;20215;-56
2023/08/04 04:09:19;;;;;;;3.83;2.30;;;;;22.70;99993.00;;;;2060465;28;20203;-56
2023/08/04 04:10:19;;;;;;;5.53;2.37;;;;;22.70;99999.00;;;;2059614;28;20203;-55
2023/08/04 04:11:20;;;;;;;4.60;2.23;;;;;22.70;99998.00;;;;2060593;28;20411;-55
2023/08/04 04:12:20;;;;;;;3.57;2.03;;;;;22.70;100000.00;;;;2059192;28;20303;-56
2023/08/04 04:13:22;;;;;;;4.17;2.43;;;;;22.70;99994.00;;;;2049856;28;20215;-56
2023/08/04 04:14:22;;;;;;;3.00;2.10;;;;;22.70;99997.00;;;;2060512;28;20357;-56
2023/08/04 04:15:23;;;;;;;2.60;2.13;;;;;22.70;100004.00;;;;2059583;28;20227;-56
2023/08/04 04:16:26;;;;;;;3.70;1.87;;;;;22.70;100002.00;;;;2060717;28;20235;-56
2023/08/04 04:17:26;;;;;;;2.80;1.90;;;;;22.70;100004.00;;;;2056673;28;20231;-56
2023/08/04 04:18:28;;;;;;;2.87;2.10;;;;;22.70;100004.00;;;;2051178;28;20883;-56
2023/08/04 04:19:28;;;;;;;3.58;2.50;;;;;22.70;100000.00;;;;2060146;28;20303;-56
2023/08/04 04:20:29;;;;;;;3.73;2.20;;;;;22.70;99999.00;;;;2059302;28;20277;-56
2023/08/04 04:21:29;;;;;;;4.60;2.20;;;;;22.70;100004.00;;;;2060586;28;20749;-56
2023/08/04 04:22:30;;;;;;;7.13;2.80;;;;;22.70;100000.00;;;;2060286;28;20742;-55
2023/08/04 04:23:30;;;;;;;3.35;2.30;;;;;22.70;99998.00;;;;2051356;28;20219;-56
2023/08/04 04:24:31;;;;;;;5.00;2.57;;;;;22.70;100002.00;;;;2059893;28;20734;-56
2023/08/04 04:25:31;;;;;;;2.90;2.10;;;;;22.70;100002.00;;;;2060009;28;20675;-60
2023/08/04 04:26:31;;;;;;;5.63;2.27;;;;;22.70;100003.00;;;;2058956;28;20720;-59
2023/08/04 04:27:32;;;;;;;3.37;2.20;;;;;22.70;100004.00;;;;2059605;28;20269;-57
2023/08/04 04:28:32;;;;;;;4.93;2.10;;;;;22.70;100005.00;;;;2049832;28;20302;-56
2023/08/04 04:29:34;;;;;;;4.60;2.33;;;;;22.70;100001.00;;;;2058026;28;20210;-56
2023/08/04 04:30:35;;;;;;;2.72;1.90;;;;;22.70;100002.00;;;;2060550;28;20226;-55
2023/08/04 04:31:36;;;;;;;3.43;2.27;;;;;22.70;100011.00;;;;2060007;28;20226;-56
2023/08/04 04:32:37;;;;;;;2.80;2.10;;;;;22.70;100004.00;;;;2061009;28;20218;-56
2023/08/04 04:33:37;;;;;;;2.30;1.80;;;;;22.70;100012.00;;;;2049903;28;20318;-56
2023/08/04 04:34:37;;;;;;;2.60;2.00;;;;;22.70;100005.00;;;;2060124;28;20223;-56
2023/08/04 04:35:38;;;;;;;5.10;1.90;;;;;22.70;100016.00;;;;2060554;28;20207;-56
2023/08/04 04:36:38;;;;;;;4.93;2.70;;;;;22.70;100013.00;;;;2060058;28;20203;-56
2023/08/04 04:37:38;;;;;;;3.53;2.37;;;;;22.70;100013.00;;;;2060300;28;20290;-56
2023/08/04 04:38:39;;;;;;;4.50;2.03;;;;;22.70;100014.00;;;;2050046;28;20643;-56
2023/08/04 04:39:39;;;;;;;4.23;2.30;;;;;22.70;100017.00;;;;2059987;28;20648;-55
2023/08/04 04:40:39;;;;;;;4.07;2.40;;;;;22.70;100013.00;;;;2059096;28;20230;-56
2023/08/04 04:41:40;;;;;;;3.10;2.57;;;;;22.70;100018.00;;;;2055448;28;20269;-56
2023/08/04 04:42:40;;;;;;;3.00;2.33;;;;;22.70;100011.00;;;;2060657;28;20238;-56
2023/08/04 04:43:40;;;;;;;3.33;2.33;;;;;22.70;100016.00;;;;2050347;28;20575;-56
2023/08/04 04:44:41;;;;;;;2.53;2.03;;;;;22.70;100015.00;;;;2060757;28;20565;-53
2023/08/04 04:45:48;;;;;;;2.87;2.20;;;;;22.70;100016.00;;;;2059854;28;20265;-55
2023/08/04 04:46:48;;;;;;;3.80;2.60;;;;;22.70;100011.00;;;;2060464;28;20218;-55
2023/08/04 04:47:49;;;;;;;4.80;2.70;;;;;22.70;100013.00;;;;2048894;28;20215;-56
2023/08/04 04:48:49;;;;;;;4.43;2.43;;;;;22.70;100023.00;;;;2058718;28;20246;-56
2023/08/04 04:49:49;;;;;;;3.50;2.10;;;;;22.70;100024.00;;;;2059454;28;20226;-55
2023/08/04 04:50:50;;;;;;;3.07;2.17;;;;;22.70;100023.00;;;;2060190;28;20334;-57
2023/08/04 04:51:51;;;;;;;2.90;2.03;;;;;22.70;100020.00;;;;2059933;28;20334;-56
2023/08/04 04:52:51;;;;;;;3.10;2.20;;;;;22.70;100028.00;;;;2049139;28;20529;-55
2023/08/04 04:53:52;;;;;;;3.07;2.23;;;;;22.70;100021.00;;;;2060376;28;20215;-55
2023/08/04 04:54:52;;;;;;;4.47;2.40;;;;;22.70;100018.00;;;;2059125;28;20243;-57
2023/08/04 04:55:52;;;;;;;4.40;2.40;;;;;22.70;100024.00;;;;2059905;28;20226;-54
2023/08/04 04:56:53;;;;;;;2.50;1.93;;;;;22.70;100024.00;;;;2058872;28;20249;-55
2023/08/04 04:57:53;;;;;;;3.10;2.50;;;;;22.70;100022.00;;;;2048346;28;20276;-52
2023/08/04 04:58:53;;;;;;;2.53;1.90;;;;;22.50;100022.00;;;;2053171;28;20219;-56
2023/08/04 04:59:54;;;;;;;6.90;2.77;;;;;22.70;100031.00;;;;2063907;28;20218;-56
2023/08/04 05:01:04;;;;;;;4.90;2.20;;;;;22.70;100039.00;;;;2060592;28;20222;-56
2023/08/04 05:02:05;;;;;;;3.83;2.40;;;;;22.70;100035.00;;;;2055785;28;20302;-56
2023/08/04 05:03:08;;;;;;;6.80;2.13;;;;;22.70;100031.00;;;;2050091;28;20228;-56
2023/08/04 05:04:09;;;;;;;2.47;2.17;;;;;22.70;100051.00;;;;2059705;28;20265;-56